createdAt,value
2022-08-26T00:01:54.674Z,10.93
2022-08-26T00:04:25.449Z,10.20
2022-08-26T00:06:54.916Z,10.68
2022-08-26T00:09:23.824Z,11.25
2022-08-26T00:11:54.045Z,10.77
2022-08-26T00:14:24.176Z,9.88
2022-08-26T00:16:55.741Z,10.45
2022-08-26T00:19:23.152Z,10.98
2022-08-26T00:21:51.304Z,10.57
2022-08-26T00:24:20.955Z,10.20
2022-08-26T00:26:49.611Z,9.82
2022-08-26T00:29:17.666Z,10.57
2022-08-26T00:31:45.648Z,10.55
2022-08-26T00:34:14.264Z,11.80
2022-08-26T00:36:43.734Z,10.70
2022-08-26T00:39:11.395Z,11.20
2022-08-26T00:41:40.732Z,10.82
2022-08-26T00:44:10.517Z,12.18
2022-08-26T00:46:49.427Z,11.85
2022-08-26T00:49:23.236Z,11.00
2022-08-26T00:51:54.173Z,11.95
2022-08-26T00:54:24.387Z,10.73
2022-08-26T00:56:57.797Z,10.85
2022-08-26T00:59:32.762Z,11.82
2022-08-26T01:02:02.684Z,11.52
2022-08-26T01:04:31.782Z,11.93
2022-08-26T01:07:00.229Z,11.98
2022-08-26T01:09:28.475Z,12.63
2022-08-26T01:12:01.032Z,12.80
2022-08-26T01:14:34.000Z,12.35
2022-08-26T01:17:05.107Z,12.55
2022-08-26T01:19:38.222Z,11.88
2022-08-26T01:22:33.487Z,11.52
2022-08-26T01:25:03.699Z,10.95
2022-08-26T01:30:03.052Z,11.18
2022-08-26T01:32:33.227Z,11.02
2022-08-26T01:35:02.203Z,11.18
2022-08-26T01:37:35.191Z,10.80
2022-08-26T01:40:04.355Z,11.25
2022-08-26T01:42:31.583Z,12.23
2022-08-26T01:45:05.600Z,12.13
2022-08-26T01:47:35.671Z,11.77
2022-08-26T01:50:07.985Z,10.68
2022-08-26T01:52:38.046Z,11.35
2022-08-26T01:55:06.344Z,10.75
2022-08-26T01:57:35.558Z,11.57
2022-08-26T02:00:06.709Z,11.40
2022-08-26T02:02:48.057Z,12.07
2022-08-26T02:05:20.569Z,10.52
2022-08-26T02:07:49.022Z,10.90
2022-08-26T02:10:16.475Z,10.43
2022-08-26T02:15:13.897Z,10.60
2022-08-26T02:17:45.021Z,10.48
2022-08-26T02:20:18.902Z,11.07
2022-08-26T02:22:47.702Z,11.85
2022-08-26T02:25:38.055Z,11.68
2022-08-26T02:30:33.832Z,10.68
2022-08-26T02:33:05.702Z,11.50
2022-08-26T02:35:34.727Z,11.35
2022-08-26T02:38:02.890Z,11.25
2022-08-26T02:40:41.088Z,11.07
2022-08-26T02:43:09.924Z,11.43
2022-08-26T02:45:37.196Z,10.80
2022-08-26T02:48:21.513Z,11.43
2022-08-26T02:50:49.370Z,11.02
2022-08-26T02:53:17.119Z,12.35
2022-08-26T02:55:51.639Z,11.85
2022-08-26T02:58:18.767Z,11.38
2022-08-26T03:00:52.900Z,11.52
2022-08-26T03:03:22.544Z,16.10
2022-08-26T03:05:51.477Z,13.90
2022-08-26T03:08:19.321Z,13.20
2022-08-26T03:10:48.028Z,15.13
2022-08-26T03:13:16.768Z,12.27
2022-08-26T03:15:44.482Z,12.20
2022-08-26T03:18:15.135Z,12.02
2022-08-26T03:20:42.361Z,13.43
2022-08-26T03:23:11.157Z,12.20
2022-08-26T03:25:38.240Z,12.57
2022-08-26T03:28:05.902Z,13.20
2022-08-26T03:30:44.212Z,12.63
2022-08-26T03:33:13.042Z,12.38
2022-08-26T03:35:42.933Z,12.95
2022-08-26T03:38:11.215Z,12.05
2022-08-26T03:40:38.972Z,12.35
2022-08-26T03:43:10.871Z,12.15
2022-08-26T03:45:38.259Z,11.30
2022-08-26T03:48:06.104Z,12.63
2022-08-26T03:50:35.765Z,11.65
2022-08-26T03:53:04.437Z,11.93
2022-08-26T03:55:34.562Z,11.57
2022-08-26T03:58:02.252Z,12.30
2022-08-26T04:00:30.154Z,13.18
2022-08-26T04:02:57.345Z,14.02
2022-08-26T04:05:25.422Z,14.20
2022-08-26T04:07:52.799Z,14.68
2022-08-26T04:10:28.551Z,15.05
2022-08-26T04:12:56.536Z,14.10
2022-08-26T04:15:27.145Z,14.90
2022-08-26T04:17:55.982Z,14.27
2022-08-26T04:20:24.620Z,13.50
2022-08-26T04:22:52.559Z,13.00
2022-08-26T04:25:20.644Z,12.48
2022-08-26T04:27:48.669Z,12.45
2022-08-26T04:30:17.911Z,10.95
2022-08-26T04:32:45.101Z,12.73
2022-08-26T04:35:12.330Z,12.32
2022-08-26T04:37:39.707Z,12.52
2022-08-26T04:40:10.621Z,11.05
2022-08-26T04:42:37.725Z,11.18
2022-08-26T04:45:05.900Z,11.85
2022-08-26T04:47:38.159Z,11.13
2022-08-26T04:50:07.461Z,11.52
2022-08-26T04:52:36.351Z,12.30
2022-08-26T04:55:06.591Z,12.63
2022-08-26T04:57:35.705Z,11.05
2022-08-26T05:00:05.964Z,10.73
2022-08-26T05:05:00.070Z,10.90
2022-08-26T05:07:27.124Z,10.35
2022-08-26T05:09:54.338Z,9.75
2022-08-26T05:12:22.027Z,11.32
2022-08-26T05:14:49.274Z,11.30
2022-08-26T05:17:16.375Z,13.00
2022-08-26T05:19:43.480Z,12.25
2022-08-26T05:22:10.803Z,12.13
2022-08-26T05:24:41.286Z,12.95
2022-08-26T05:27:11.856Z,11.90
2022-08-26T05:29:40.889Z,12.55
2022-08-26T05:32:08.069Z,12.57
2022-08-26T05:34:35.205Z,12.18
2022-08-26T05:39:33.587Z,12.20
2022-08-26T05:42:01.577Z,13.40
2022-08-26T05:44:29.413Z,14.25
2022-08-26T05:47:16.456Z,13.45
2022-08-26T05:49:51.363Z,13.13
2022-08-26T05:52:19.375Z,14.02
2022-08-26T05:54:47.606Z,12.95
2022-08-26T05:57:14.962Z,13.30
2022-08-26T05:59:42.349Z,16.30
2022-08-26T06:02:10.213Z,14.57
2022-08-26T06:04:37.377Z,13.65
2022-08-26T06:07:05.539Z,14.05
2022-08-26T06:09:38.583Z,15.48
2022-08-26T06:12:06.080Z,14.15
2022-08-26T06:14:33.129Z,14.70
2022-08-26T06:17:00.939Z,14.70
2022-08-26T06:19:32.807Z,15.52
2022-08-26T06:22:23.464Z,14.77
2022-08-26T06:25:09.935Z,14.90
2022-08-26T06:27:37.109Z,15.18
2022-08-26T06:30:04.801Z,14.40
2022-08-26T06:32:32.000Z,15.57
2022-08-26T06:34:59.131Z,16.27
2022-08-26T06:37:26.531Z,15.63
2022-08-26T06:39:53.715Z,15.00
2022-08-26T06:42:22.810Z,14.65
2022-08-26T06:44:51.694Z,15.90
2022-08-26T06:47:18.753Z,16.25
2022-08-26T06:49:45.888Z,15.00
2022-08-26T06:52:13.054Z,14.35
2022-08-26T06:54:43.282Z,16.38
2022-08-26T06:57:13.151Z,15.50
2022-08-26T06:59:43.789Z,15.90
2022-08-26T07:02:13.415Z,16.35
2022-08-26T07:04:41.499Z,15.63
2022-08-26T07:07:09.661Z,15.80
2022-08-26T07:09:37.534Z,16.67
2022-08-26T07:12:06.838Z,16.08
2022-08-26T07:14:34.854Z,15.27
2022-08-26T07:17:02.090Z,14.00
2022-08-26T07:19:31.365Z,14.63
2022-08-26T07:22:04.611Z,15.43
2022-08-26T07:24:33.544Z,14.13
2022-08-26T07:27:05.677Z,14.65
2022-08-26T07:29:34.397Z,13.55
2022-08-26T07:32:02.126Z,13.40
2022-08-26T07:34:33.187Z,13.80
2022-08-26T07:37:01.123Z,13.20
2022-08-26T07:39:31.641Z,13.68
2022-08-26T07:42:02.612Z,13.38
2022-08-26T07:44:36.150Z,13.02
2022-08-26T07:47:10.482Z,13.05
2022-08-26T07:49:54.984Z,13.95
2022-08-26T07:52:27.834Z,13.15
2022-08-26T07:55:01.121Z,12.73
2022-08-26T07:57:29.391Z,12.73
2022-08-26T07:59:57.360Z,14.15
2022-08-26T08:02:25.734Z,12.93
2022-08-26T08:04:53.468Z,13.18
2022-08-26T08:07:21.688Z,12.90
2022-08-26T08:10:11.398Z,12.45
2022-08-26T08:12:39.588Z,12.65
2022-08-26T08:15:07.688Z,12.95
2022-08-26T08:17:34.926Z,12.88
2022-08-26T08:20:03.373Z,12.07
2022-08-26T08:22:32.600Z,12.03
2022-08-26T08:25:00.015Z,11.73
2022-08-26T08:29:57.399Z,9.45
2022-08-26T08:32:24.559Z,10.25
2022-08-26T08:34:51.725Z,10.07
2022-08-26T08:37:18.922Z,9.35
2022-08-26T08:39:46.067Z,8.30
2022-08-26T08:42:38.199Z,8.77
2022-08-26T08:45:15.489Z,9.00
2022-08-26T08:48:00.871Z,7.72
2022-08-26T08:50:56.737Z,9.88
2022-08-26T08:53:24.661Z,9.30
2022-08-26T08:56:17.166Z,9.35
2022-08-26T08:59:08.205Z,9.20
2022-08-26T09:01:47.886Z,8.35
2022-08-26T09:04:38.050Z,8.90
2022-08-26T09:07:09.036Z,8.55
2022-08-26T09:09:51.499Z,8.15
2022-08-26T09:12:31.264Z,7.75
2022-08-26T09:15:07.543Z,7.50
2022-08-26T09:18:07.215Z,7.82
2022-08-26T09:21:00.479Z,6.80
2022-08-26T09:23:28.251Z,7.00
2022-08-26T09:26:02.466Z,7.47
2022-08-26T09:28:32.261Z,6.55
2022-08-26T09:31:19.611Z,7.72
2022-08-26T09:33:46.870Z,7.70
2022-08-26T09:36:39.515Z,7.30
2022-08-26T09:39:37.635Z,8.05
2022-08-26T09:42:25.599Z,9.40
2022-08-26T09:44:55.934Z,9.93
2022-08-26T09:47:35.278Z,9.85
2022-08-26T09:50:09.569Z,10.63
2022-08-26T09:52:37.770Z,9.02
2022-08-26T09:55:20.790Z,10.00
2022-08-26T10:00:33.603Z,9.90
2022-08-26T10:03:06.925Z,10.93
2022-08-26T10:05:47.777Z,9.63
2022-08-26T10:08:47.439Z,9.45
2022-08-26T10:11:21.290Z,10.60
2022-08-26T10:13:58.170Z,9.88
2022-08-26T10:16:34.974Z,9.68
2022-08-26T10:19:12.198Z,10.35
2022-08-26T10:21:53.951Z,10.40
2022-08-26T10:24:32.138Z,9.38
2022-08-26T10:27:03.108Z,9.63
2022-08-26T10:29:39.039Z,9.25
2022-08-26T10:32:16.046Z,9.48
2022-08-26T10:34:43.923Z,8.45
2022-08-26T10:37:22.864Z,8.02
2022-08-26T10:40:08.720Z,7.50
2022-08-26T10:42:46.332Z,7.57
2022-08-26T10:45:17.832Z,7.18
2022-08-26T10:48:00.141Z,6.95
2022-08-26T10:50:33.355Z,7.35
2022-08-26T10:53:09.409Z,7.28
2022-08-26T10:55:43.589Z,7.32
2022-08-26T10:58:29.314Z,7.22
2022-08-26T11:01:40.848Z,7.55
2022-08-26T11:04:31.272Z,7.95
2022-08-26T11:07:31.708Z,7.35
2022-08-26T11:10:06.916Z,8.00
2022-08-26T11:12:37.380Z,7.30
2022-08-26T11:15:10.276Z,7.28
2022-08-26T11:17:46.710Z,6.88
2022-08-26T11:20:23.881Z,6.97
2022-08-26T11:22:53.540Z,6.97
2022-08-26T11:25:29.740Z,6.50
2022-08-26T11:27:59.919Z,6.47
2022-08-26T11:30:37.030Z,7.22
2022-08-26T11:33:06.190Z,6.60
2022-08-26T11:35:42.211Z,6.47
2022-08-26T11:38:42.117Z,6.10
2022-08-26T11:41:17.689Z,6.72
2022-08-26T11:43:47.645Z,6.30
2022-08-26T11:46:25.843Z,6.40
2022-08-26T11:49:06.055Z,6.22
2022-08-26T11:51:40.440Z,6.80
2022-08-26T11:54:11.457Z,6.82
2022-08-26T11:59:11.602Z,6.15
2022-08-26T12:01:42.178Z,5.45
2022-08-26T12:04:25.212Z,4.65
2022-08-26T12:06:53.619Z,4.85
2022-08-26T12:09:35.012Z,6.13
2022-08-26T12:12:21.778Z,5.55
2022-08-26T12:14:49.164Z,5.20
2022-08-26T12:17:19.366Z,4.90
2022-08-26T12:19:49.599Z,5.38
2022-08-26T12:22:32.116Z,5.15
2022-08-26T12:25:03.576Z,4.93
2022-08-26T12:27:45.607Z,4.82
2022-08-26T12:30:26.192Z,5.20
2022-08-26T12:33:22.979Z,5.38
2022-08-26T12:35:56.653Z,5.05
2022-08-26T12:38:26.316Z,5.30
2022-08-26T12:40:54.767Z,5.43
2022-08-26T12:43:45.981Z,5.80
2022-08-26T12:46:17.948Z,5.10
2022-08-26T12:48:48.920Z,5.55
2022-08-26T12:51:29.323Z,4.80
2022-08-26T12:53:58.274Z,5.40
2022-08-26T12:56:39.125Z,5.38
2022-08-26T12:59:19.950Z,4.95
2022-08-26T13:01:49.539Z,5.15
2022-08-26T13:04:33.866Z,4.72
2022-08-26T13:07:33.410Z,4.18
2022-08-26T13:10:01.254Z,4.78
2022-08-26T13:12:32.751Z,5.13
2022-08-26T13:15:01.506Z,5.00
2022-08-26T13:17:30.446Z,4.72
2022-08-26T13:20:03.480Z,4.30
2022-08-26T13:22:31.280Z,4.55
2022-08-26T13:24:58.571Z,4.80
2022-08-26T13:27:27.397Z,4.20
2022-08-26T13:29:57.261Z,4.20
2022-08-26T13:34:56.450Z,5.55
2022-08-26T13:37:34.241Z,6.20
2022-08-26T13:40:05.014Z,6.68
2022-08-26T13:42:32.169Z,6.75
2022-08-26T13:44:59.896Z,7.40
2022-08-26T13:47:27.690Z,6.93
2022-08-26T13:49:56.477Z,7.47
2022-08-26T13:52:30.374Z,7.15
2022-08-26T13:55:00.309Z,7.05
2022-08-26T13:57:28.627Z,7.15
2022-08-26T13:59:57.304Z,7.05
2022-08-26T14:02:25.404Z,7.38
2022-08-26T14:04:53.867Z,7.43
2022-08-26T14:07:21.195Z,8.00
2022-08-26T14:09:51.478Z,7.45
2022-08-26T14:12:18.868Z,7.40
2022-08-26T14:14:45.919Z,6.97
2022-08-26T14:17:19.509Z,7.22
2022-08-26T14:19:48.611Z,6.88
2022-08-26T14:22:17.632Z,6.30
2022-08-26T14:24:45.822Z,6.85
2022-08-26T14:27:13.603Z,7.70
2022-08-26T14:29:41.335Z,6.88
2022-08-26T14:32:17.182Z,7.40
2022-08-26T14:34:48.050Z,6.88
2022-08-26T14:37:15.518Z,6.72
2022-08-26T14:39:42.789Z,6.82
2022-08-26T14:42:10.369Z,7.20
2022-08-26T14:44:37.831Z,6.88
2022-08-26T14:47:06.758Z,7.18
2022-08-26T14:49:33.952Z,6.60
2022-08-26T14:52:01.196Z,5.88
2022-08-26T14:54:29.633Z,6.30
2022-08-26T14:57:07.227Z,6.50
2022-08-26T14:59:37.358Z,6.20
2022-08-26T15:02:06.110Z,6.57
2022-08-26T15:04:33.956Z,6.30
2022-08-26T15:07:01.688Z,5.93
2022-08-26T15:09:30.507Z,5.70
2022-08-26T15:11:58.015Z,6.13
2022-08-26T15:14:26.059Z,5.85
2022-08-26T15:16:57.086Z,5.90
2022-08-26T15:19:27.638Z,6.70
2022-08-26T15:21:54.786Z,7.15
2022-08-26T15:24:24.898Z,6.38
2022-08-26T15:26:52.658Z,5.90
2022-08-26T15:29:20.448Z,6.00
2022-08-26T15:31:47.797Z,6.07
2022-08-26T15:34:16.926Z,7.05
2022-08-26T15:36:46.621Z,6.05
2022-08-26T15:39:14.958Z,6.25
2022-08-26T15:41:42.114Z,5.72
2022-08-26T15:44:10.718Z,5.95
2022-08-26T15:46:38.666Z,5.72
2022-08-26T15:49:07.184Z,5.65
2022-08-26T15:51:45.868Z,6.30
2022-08-26T15:54:14.292Z,6.07
2022-08-26T15:56:43.513Z,6.50
2022-08-26T15:59:11.801Z,6.60
2022-08-26T16:01:40.051Z,6.40
2022-08-26T16:04:07.318Z,5.93
2022-08-26T16:06:37.397Z,6.07
2022-08-26T16:11:31.752Z,6.78
2022-08-26T16:13:58.831Z,6.57
2022-08-26T16:16:26.702Z,6.60
2022-08-26T16:18:54.027Z,6.22
2022-08-26T16:21:28.052Z,5.93
2022-08-26T16:23:57.062Z,5.80
2022-08-26T16:26:33.222Z,6.60
2022-08-26T16:29:09.896Z,6.15
2022-08-26T16:31:40.698Z,6.30
2022-08-26T16:34:08.993Z,6.28
2022-08-26T16:36:37.841Z,6.20
2022-08-26T16:39:06.284Z,6.20
2022-08-26T16:41:34.061Z,6.28
2022-08-26T16:44:02.066Z,6.45
2022-08-26T16:46:29.708Z,6.70
2022-08-26T16:48:58.525Z,7.40
2022-08-26T16:51:28.030Z,6.78
2022-08-26T16:53:56.987Z,6.97
2022-08-26T16:56:34.238Z,8.23
2022-08-26T16:59:05.027Z,9.27
2022-08-26T17:04:47.251Z,7.32
2022-08-26T17:07:17.773Z,8.50
2022-08-26T17:09:45.087Z,8.50
2022-08-26T17:12:12.506Z,7.18
2022-08-26T17:14:39.827Z,7.30
2022-08-26T17:17:07.009Z,7.25
2022-08-26T17:19:39.106Z,7.82
2022-08-26T17:22:10.524Z,7.30
2022-08-26T17:24:38.243Z,7.15
2022-08-26T17:27:05.849Z,7.20
2022-08-26T17:29:33.424Z,7.50
2022-08-26T17:32:00.656Z,7.15
2022-08-26T17:34:27.730Z,6.95
2022-08-26T17:36:55.226Z,7.00
2022-08-26T17:39:22.631Z,7.32
2022-08-26T17:41:49.809Z,7.70
2022-08-26T17:44:16.911Z,7.28
2022-08-26T17:46:43.954Z,7.05
2022-08-26T17:49:11.031Z,7.30
2022-08-26T17:51:38.097Z,7.18
2022-08-26T17:54:06.154Z,6.80
2022-08-26T17:56:33.479Z,8.07
2022-08-26T17:59:02.530Z,8.27
2022-08-26T18:04:00.460Z,6.78
2022-08-26T18:08:55.669Z,7.68
2022-08-26T18:11:24.630Z,6.20
2022-08-26T18:13:51.860Z,4.80
2022-08-26T18:16:20.105Z,4.03
2022-08-26T18:18:48.770Z,4.13
2022-08-26T18:21:19.467Z,4.25
2022-08-26T18:23:47.156Z,5.43
2022-08-26T18:26:27.902Z,4.85
2022-08-26T18:28:55.750Z,3.88
2022-08-26T18:31:23.654Z,4.18
2022-08-26T18:33:51.064Z,3.80
2022-08-26T18:36:23.589Z,4.13
2022-08-26T18:38:51.952Z,3.65
2022-08-26T18:41:21.796Z,3.60
2022-08-26T18:43:50.687Z,3.65
2022-08-26T18:46:19.447Z,4.60
2022-08-26T18:48:51.022Z,4.53
2022-08-26T18:51:31.872Z,4.70
2022-08-26T18:54:00.197Z,4.25
2022-08-26T18:56:28.105Z,4.00
2022-08-26T18:58:55.160Z,4.10
2022-08-26T19:01:26.751Z,3.97
2022-08-26T19:03:56.263Z,3.90
2022-08-26T19:06:24.483Z,4.30
2022-08-26T19:08:51.697Z,3.92
2022-08-26T19:11:31.221Z,4.38
2022-08-26T19:14:01.390Z,4.68
2022-08-26T19:16:30.534Z,5.30
2022-08-26T19:18:58.512Z,5.25
2022-08-26T19:21:25.812Z,5.43
2022-08-26T19:24:00.009Z,5.18
2022-08-26T19:26:28.719Z,5.40
2022-08-26T19:28:56.190Z,4.50
2022-08-26T19:31:23.288Z,5.03
2022-08-26T19:33:50.693Z,5.75
2022-08-26T19:36:23.898Z,5.60
2022-08-26T19:38:51.341Z,5.28
2022-08-26T19:41:24.559Z,5.30
2022-08-26T19:43:55.616Z,5.47
2022-08-26T19:46:26.747Z,5.00
2022-08-26T19:48:55.818Z,6.30
2022-08-26T19:51:29.332Z,5.55
2022-08-26T19:53:59.014Z,5.30
2022-08-26T19:56:28.183Z,6.05
2022-08-26T19:58:55.895Z,5.85
2022-08-26T20:01:23.731Z,5.32
2022-08-26T20:03:50.956Z,5.53
2022-08-26T20:06:18.336Z,4.65
2022-08-26T20:08:45.711Z,5.03
2022-08-26T20:11:16.353Z,5.30
2022-08-26T20:13:45.007Z,5.20
2022-08-26T20:16:12.388Z,5.38
2022-08-26T20:19:00.640Z,5.50
2022-08-26T20:21:30.103Z,5.43
2022-08-26T20:24:10.949Z,6.03
2022-08-26T20:26:40.100Z,6.00
2022-08-26T20:29:08.873Z,6.18
2022-08-26T20:31:36.012Z,5.70
2022-08-26T20:34:04.818Z,5.50
2022-08-26T20:36:32.278Z,5.95
2022-08-26T20:38:59.556Z,5.78
2022-08-26T20:41:27.765Z,5.70
2022-08-26T20:43:56.140Z,5.53
2022-08-26T20:46:25.047Z,5.80
2022-08-26T20:48:53.354Z,6.10
2022-08-26T20:51:21.167Z,5.72
2022-08-26T20:53:48.501Z,5.93
2022-08-26T20:56:23.756Z,5.53
2022-08-26T20:58:53.318Z,5.32
2022-08-26T21:01:28.315Z,5.20
2022-08-26T21:03:57.070Z,5.22
2022-08-26T21:06:24.139Z,4.80
2022-08-26T21:08:51.415Z,4.72
2022-08-26T21:11:20.296Z,5.10
2022-08-26T21:14:04.441Z,4.80
2022-08-26T21:16:39.304Z,5.18
2022-08-26T21:19:10.734Z,4.60
2022-08-26T21:21:38.352Z,4.75
2022-08-26T21:24:05.918Z,4.47
2022-08-26T21:26:33.163Z,5.05
2022-08-26T21:29:02.382Z,5.20
2022-08-26T21:31:31.980Z,5.78
2022-08-26T21:33:59.868Z,6.03
2022-08-26T21:36:27.363Z,5.63
2022-08-26T21:39:01.284Z,6.00
2022-08-26T21:41:28.849Z,5.65
2022-08-26T21:43:59.347Z,5.20
2022-08-26T21:46:29.259Z,5.15
2022-08-26T21:49:03.681Z,4.75
2022-08-26T21:51:36.647Z,5.07
2022-08-26T21:54:10.156Z,5.07
2022-08-26T21:56:44.358Z,5.85
2022-08-26T21:59:12.277Z,5.20
2022-08-26T22:01:39.728Z,5.60
2022-08-26T22:04:10.540Z,5.57
2022-08-26T22:06:44.801Z,5.00
2022-08-26T22:09:14.048Z,5.38
2022-08-26T22:11:41.670Z,5.20
2022-08-26T22:14:09.456Z,5.25
2022-08-26T22:16:36.592Z,4.95
2022-08-26T22:19:03.848Z,4.53
2022-08-26T22:21:31.225Z,4.03
2022-08-26T22:23:58.802Z,4.20
2022-08-26T22:26:29.190Z,3.90
2022-08-26T22:28:58.827Z,3.70
2022-08-26T22:31:37.903Z,3.53
2022-08-26T22:34:12.829Z,3.53
2022-08-26T22:36:43.850Z,3.85
2022-08-26T22:39:18.347Z,4.88
2022-08-26T22:41:48.732Z,5.10
2022-08-26T22:44:17.247Z,3.30
2022-08-26T22:46:45.668Z,3.97
2022-08-26T22:49:17.123Z,4.30
2022-08-26T22:51:45.778Z,4.47
2022-08-26T22:54:13.963Z,5.07
2022-08-26T22:56:41.188Z,5.68
2022-08-26T22:59:08.761Z,5.03
2022-08-26T23:01:38.040Z,4.95
2022-08-26T23:04:06.667Z,5.07
2022-08-26T23:06:38.189Z,4.93
2022-08-26T23:09:07.295Z,5.93
2022-08-26T23:11:34.796Z,5.45
2022-08-26T23:14:02.870Z,5.40
2022-08-26T23:16:39.421Z,5.75
2022-08-26T23:19:07.775Z,5.50
2022-08-26T23:21:35.254Z,5.68
2022-08-26T23:24:02.572Z,6.05
2022-08-26T23:26:29.687Z,6.00
2022-08-26T23:28:56.779Z,5.32
2022-08-26T23:31:24.113Z,5.20
2022-08-26T23:34:09.729Z,5.50
2022-08-26T23:36:37.259Z,5.43
2022-08-26T23:39:06.071Z,5.40
2022-08-26T23:41:33.152Z,5.45
2022-08-26T23:44:03.401Z,4.90
2022-08-26T23:46:35.320Z,5.55
2022-08-26T23:49:03.262Z,5.13
2022-08-26T23:51:49.224Z,4.97
2022-08-26T23:54:16.355Z,5.40
2022-08-26T23:56:43.430Z,5.22
2022-08-26T23:59:10.467Z,5.03
